sensor_id;sensor_type;location;lat;lon;timestamp;pressure;altitude;pressure_sealevel;temperature;humidity
44481;BME280;30184;42.018;23.670;2023-12-04T00:01:04;91558.50;;;6.27;100.00
44481;BME280;30184;42.018;23.670;2023-12-04T00:03:34;91556.97;;;6.26;100.00
44481;BME280;30184;42.018;23.670;2023-12-04T00:06:06;91561.22;;;6.23;100.00
44481;BME280;30184;42.018;23.670;2023-12-04T00:08:36;91579.00;;;6.21;100.00
44481;BME280;30184;42.018;23.670;2023-12-04T00:11:06;91571.69;;;6.18;100.00
44481;BME280;30184;42.018;23.670;2023-12-04T00:13:35;91585.19;;;6.14;100.00
44481;BME280;30184;42.018;23.670;2023-12-04T00:16:05;91572.50;;;6.15;100.00
44481;BME280;30184;42.018;23.670;2023-12-04T00:18:34;91572.53;;;6.11;100.00
44481;BME280;30184;42.018;23.670;2023-12-04T00:21:06;91539.00;;;5.75;100.00
44481;BME280;30184;42.018;23.670;2023-12-04T00:23:35;91576.16;;;5.94;100.00
44481;BME280;30184;42.018;23.670;2023-12-04T00:26:05;91579.75;;;5.77;100.00
44481;BME280;30184;42.018;23.670;2023-12-04T00:28:35;91582.22;;;5.60;100.00
44481;BME280;30184;42.018;23.670;2023-12-04T00:31:05;91585.69;;;5.61;100.00
44481;BME280;30184;42.018;23.670;2023-12-04T00:33:34;91588.44;;;5.54;100.00
44481;BME280;30184;42.018;23.670;2023-12-04T00:36:06;91600.81;;;5.44;100.00
44481;BME280;30184;42.018;23.670;2023-12-04T00:38:35;91592.03;;;5.33;100.00
44481;BME280;30184;42.018;23.670;2023-12-04T00:41:05;91593.25;;;5.25;100.00
44481;BME280;30184;42.018;23.670;2023-12-04T00:43:34;91597.94;;;5.17;100.00
44481;BME280;30184;42.018;23.670;2023-12-04T00:46:03;91600.69;;;5.07;100.00
44481;BME280;30184;42.018;23.670;2023-12-04T00:48:32;91605.31;;;5.03;100.00
44481;BME280;30184;42.018;23.670;2023-12-04T00:51:02;91547.56;;;4.56;100.00
44481;BME280;30184;42.018;23.670;2023-12-04T00:53:32;91585.09;;;4.73;100.00
44481;BME280;30184;42.018;23.670;2023-12-04T00:56:01;91608.88;;;4.85;100.00
44481;BME280;30184;42.018;23.670;2023-12-04T00:58:30;91608.09;;;4.85;100.00
44481;BME280;30184;42.018;23.670;2023-12-04T01:00:59;91613.84;;;4.83;100.00
44481;BME280;30184;42.018;23.670;2023-12-04T01:03:29;91615.06;;;4.79;100.00
44481;BME280;30184;42.018;23.670;2023-12-04T01:06:00;91617.75;;;4.75;100.00
44481;BME280;30184;42.018;23.670;2023-12-04T01:08:31;91618.13;;;4.74;100.00
44481;BME280;30184;42.018;23.670;2023-12-04T01:11:00;91619.69;;;4.71;100.00
44481;BME280;30184;42.018;23.670;2023-12-04T01:13:29;91618.56;;;4.69;100.00
44481;BME280;30184;42.018;23.670;2023-12-04T01:15:58;91615.09;;;4.68;100.00
44481;BME280;30184;42.018;23.670;2023-12-04T01:18:27;91623.56;;;4.67;100.00
44481;BME280;30184;42.018;23.670;2023-12-04T01:20:56;91628.53;;;4.68;100.00
44481;BME280;30184;42.018;23.670;2023-12-04T01:23:25;91628.91;;;4.67;100.00
44481;BME280;30184;42.018;23.670;2023-12-04T01:25:56;91623.16;;;4.68;100.00
44481;BME280;30184;42.018;23.670;2023-12-04T01:28:25;91619.31;;;4.69;100.00
44481;BME280;30184;42.018;23.670;2023-12-04T01:30:54;91610.88;;;4.71;100.00
44481;BME280;30184;42.018;23.670;2023-12-04T01:33:23;91610.88;;;4.71;100.00
44481;BME280;30184;42.018;23.670;2023-12-04T01:35:53;91604.00;;;4.63;100.00
44481;BME280;30184;42.018;23.670;2023-12-04T01:38:22;91603.19;;;4.69;100.00
44481;BME280;30184;42.018;23.670;2023-12-04T01:40:51;91622.84;;;4.48;100.00
44481;BME280;30184;42.018;23.670;2023-12-04T01:43:21;91608.22;;;4.60;100.00
44481;BME280;30184;42.018;23.670;2023-12-04T01:45:51;91613.56;;;4.67;100.00
44481;BME280;30184;42.018;23.670;2023-12-04T01:48:21;91622.41;;;4.68;100.00
44481;BME280;30184;42.018;23.670;2023-12-04T01:50:51;91633.91;;;4.72;100.00
44481;BME280;30184;42.018;23.670;2023-12-04T01:53:21;91572.22;;;4.40;100.00
44481;BME280;30184;42.018;23.670;2023-12-04T01:55:50;91611.97;;;4.77;100.00
44481;BME280;30184;42.018;23.670;2023-12-04T01:58:21;91620.44;;;4.79;100.00
44481;BME280;30184;42.018;23.670;2023-12-04T02:00:50;91620.38;;;4.82;100.00
44481;BME280;30184;42.018;23.670;2023-12-04T02:03:19;91618.47;;;4.86;100.00
44481;BME280;30184;42.018;23.670;2023-12-04T02:05:50;91586.28;;;4.72;100.00
44481;BME280;30184;42.018;23.670;2023-12-04T02:08:20;91616.09;;;4.96;100.00
44481;BME280;30184;42.018;23.670;2023-12-04T02:10:50;91625.31;;;4.98;100.00
44481;BME280;30184;42.018;23.670;2023-12-04T02:13:21;91623.81;;;4.94;100.00
44481;BME280;30184;42.018;23.670;2023-12-04T02:15:53;91649.50;;;5.02;100.00
44481;BME280;30184;42.018;23.670;2023-12-04T02:18:23;91641.03;;;5.03;100.00
44481;BME280;30184;42.018;23.670;2023-12-04T02:20:53;91644.50;;;5.04;100.00
44481;BME280;30184;42.018;23.670;2023-12-04T02:23:22;91638.34;;;5.07;100.00
44481;BME280;30184;42.018;23.670;2023-12-04T02:25:54;91639.88;;;5.08;100.00
44481;BME280;30184;42.018;23.670;2023-12-04T02:28:29;91643.69;;;5.10;100.00
44481;BME280;30184;42.018;23.670;2023-12-04T02:31:01;91642.91;;;5.10;100.00
44481;BME280;30184;42.018;23.670;2023-12-04T02:33:33;91583.22;;;4.67;100.00
44481;BME280;30184;42.018;23.670;2023-12-04T02:36:05;91650.25;;;5.09;100.00
44481;BME280;30184;42.018;23.670;2023-12-04T02:38:35;91642.56;;;5.08;100.00
44481;BME280;30184;42.018;23.670;2023-12-04T02:41:06;91611.16;;;4.83;100.00
44481;BME280;30184;42.018;23.670;2023-12-04T02:43:36;91634.16;;;4.95;100.00
44481;BME280;30184;42.018;23.670;2023-12-04T02:46:05;91601.25;;;4.73;100.00
44481;BME280;30184;42.018;23.670;2023-12-04T02:48:34;91580.25;;;4.54;100.00
44481;BME280;30184;42.018;23.670;2023-12-04T02:51:05;91611.63;;;4.71;100.00
44481;BME280;30184;42.018;23.670;2023-12-04T02:53:34;91656.81;;;4.98;100.00
44481;BME280;30184;42.018;23.670;2023-12-04T02:56:06;91659.13;;;4.96;100.00
44481;BME280;30184;42.018;23.670;2023-12-04T02:58:35;91659.91;;;4.96;100.00
44481;BME280;30184;42.018;23.670;2023-12-04T03:01:05;91629.66;;;4.74;100.00
44481;BME280;30184;42.018;23.670;2023-12-04T03:03:34;91671.44;;;4.97;100.00
44481;BME280;30184;42.018;23.670;2023-12-04T03:06:04;91602.50;;;4.51;99.48
44481;BME280;30184;42.018;23.670;2023-12-04T03:08:33;91671.44;;;4.93;99.87
44481;BME280;30184;42.018;23.670;2023-12-04T03:11:02;91676.16;;;4.68;99.65
44481;BME280;30184;42.018;23.670;2023-12-04T03:13:33;91634.28;;;4.70;99.42
44481;BME280;30184;42.018;23.670;2023-12-04T03:16:03;91637.75;;;4.67;100.00
44481;BME280;30184;42.018;23.670;2023-12-04T03:18:32;91678.75;;;4.89;100.00
44481;BME280;30184;42.018;23.670;2023-12-04T03:21:01;91681.44;;;4.89;99.40
44481;BME280;30184;42.018;23.670;2023-12-04T03:23:31;91685.69;;;4.90;100.00
44481;BME280;30184;42.018;23.670;2023-12-04T03:26:00;91683.75;;;4.91;99.87
44481;BME280;30184;42.018;23.670;2023-12-04T03:28:29;91683.38;;;4.88;99.94
44481;BME280;30184;42.018;23.670;2023-12-04T03:30:59;91684.16;;;4.89;99.88
44481;BME280;30184;42.018;23.670;2023-12-04T03:33:28;91682.22;;;4.90;99.70
44481;BME280;30184;42.018;23.670;2023-12-04T03:35:59;91692.59;;;4.87;98.84
44481;BME280;30184;42.018;23.670;2023-12-04T03:38:28;91683.75;;;4.87;99.12
44481;BME280;30184;42.018;23.670;2023-12-04T03:40:57;91691.44;;;4.88;99.72
44481;BME280;30184;42.018;23.670;2023-12-04T03:43:26;91692.97;;;4.86;98.72
44481;BME280;30184;42.018;23.670;2023-12-04T03:45:55;91688.00;;;4.84;99.00
44481;BME280;30184;42.018;23.670;2023-12-04T03:48:25;91699.19;;;4.72;97.87
44481;BME280;30184;42.018;23.670;2023-12-04T03:50:55;91689.16;;;4.80;97.63
44481;BME280;30184;42.018;23.670;2023-12-04T03:53:24;91692.25;;;4.78;97.39
44481;BME280;30184;42.018;23.670;2023-12-04T03:55:53;91688.44;;;4.69;97.20
44481;BME280;30184;42.018;23.670;2023-12-04T03:58:22;91698.00;;;4.77;97.53
44481;BME280;30184;42.018;23.670;2023-12-04T04:00:51;91684.56;;;4.77;98.22
44481;BME280;30184;42.018;23.670;2023-12-04T04:03:20;91680.75;;;4.64;98.35
44481;BME280;30184;42.018;23.670;2023-12-04T04:05:50;91691.13;;;4.72;97.36
44481;BME280;30184;42.018;23.670;2023-12-04T04:08:19;91693.81;;;4.69;97.67
44481;BME280;30184;42.018;23.670;2023-12-04T04:10:48;91620.63;;;4.22;97.58
44481;BME280;30184;42.018;23.670;2023-12-04T04:13:17;91690.34;;;4.68;97.87
44481;BME280;30184;42.018;23.670;2023-12-04T04:15:47;91697.28;;;4.69;98.39
44481;BME280;30184;42.018;23.670;2023-12-04T04:18:16;91700.34;;;4.68;97.93
44481;BME280;30184;42.018;23.670;2023-12-04T04:20:45;91692.66;;;4.66;97.63
44481;BME280;30184;42.018;23.670;2023-12-04T04:23:15;91673.13;;;4.48;97.08
44481;BME280;30184;42.018;23.670;2023-12-04T04:25:44;91707.63;;;4.67;97.61
44481;BME280;30184;42.018;23.670;2023-12-04T04:28:14;91710.31;;;4.67;97.55
44481;BME280;30184;42.018;23.670;2023-12-04T04:30:43;91710.31;;;4.67;98.07
44481;BME280;30184;42.018;23.670;2023-12-04T04:33:12;91717.63;;;4.67;97.89
44481;BME280;30184;42.018;23.670;2023-12-04T04:35:41;91718.38;;;4.67;98.04
44481;BME280;30184;42.018;23.670;2023-12-04T04:38:10;91717.63;;;4.67;98.22
44481;BME280;30184;42.018;23.670;2023-12-04T04:40:41;91725.69;;;4.67;98.32
44481;BME280;30184;42.018;23.670;2023-12-04T04:43:11;91728.38;;;4.67;98.40
44481;BME280;30184;42.018;23.670;2023-12-04T04:45:40;91731.09;;;4.63;97.25
44481;BME280;30184;42.018;23.670;2023-12-04T04:48:09;91728.00;;;4.58;96.47
44481;BME280;30184;42.018;23.670;2023-12-04T04:50:38;91739.16;;;4.56;96.59
44481;BME280;30184;42.018;23.670;2023-12-04T04:53:07;91737.25;;;4.53;96.41
44481;BME280;30184;42.018;23.670;2023-12-04T04:55:36;91669.00;;;4.01;96.01
44481;BME280;30184;42.018;23.670;2023-12-04T04:58:07;91747.63;;;4.51;96.67
44481;BME280;30184;42.018;23.670;2023-12-04T05:00:36;91732.28;;;4.44;96.16
44481;BME280;30184;42.018;23.670;2023-12-04T05:03:05;91749.91;;;4.45;95.39
44481;BME280;30184;42.018;23.670;2023-12-04T05:05:34;91743.78;;;4.38;94.25
44481;BME280;30184;42.018;23.670;2023-12-04T05:08:03;91749.16;;;4.38;94.77
44481;BME280;30184;42.018;23.670;2023-12-04T05:10:32;91756.09;;;4.35;93.94
44481;BME280;30184;42.018;23.670;2023-12-04T05:13:02;91724.63;;;4.11;94.86
44481;BME280;30184;42.018;23.670;2023-12-04T05:15:32;91767.59;;;4.32;94.76
44481;BME280;30184;42.018;23.670;2023-12-04T05:18:01;91726.94;;;4.02;93.81
44481;BME280;30184;42.018;23.670;2023-12-04T05:20:31;91771.84;;;4.26;94.85
44481;BME280;30184;42.018;23.670;2023-12-04T05:23:00;91778.34;;;4.25;95.42
44481;BME280;30184;42.018;23.670;2023-12-04T05:25:29;91776.81;;;4.24;95.34
44481;BME280;30184;42.018;23.670;2023-12-04T05:28:00;91769.91;;;4.16;95.05
44481;BME280;30184;42.018;23.670;2023-12-04T05:30:29;91781.03;;;4.22;95.68
44481;BME280;30184;42.018;23.670;2023-12-04T05:33:00;91769.53;;;4.03;95.01
44481;BME280;30184;42.018;23.670;2023-12-04T05:35:29;91761.84;;;3.98;93.72
44481;BME280;30184;42.018;23.670;2023-12-04T05:38:01;91793.69;;;4.14;94.22
44481;BME280;30184;42.018;23.670;2023-12-04T05:40:30;91804.03;;;4.08;93.82
44481;BME280;30184;42.018;23.670;2023-12-04T05:42:59;91801.34;;;4.08;94.05
44481;BME280;30184;42.018;23.670;2023-12-04T05:45:28;91825.13;;;3.89;93.73
44481;BME280;30184;42.018;23.670;2023-12-04T05:47:57;91777.53;;;3.75;93.63
44481;BME280;30184;42.018;23.670;2023-12-04T05:50:28;91804.03;;;4.01;94.35
44481;BME280;30184;42.018;23.670;2023-12-04T05:52:57;91813.25;;;3.97;93.81
44481;BME280;30184;42.018;23.670;2023-12-04T05:55:26;91773.31;;;3.63;94.31
44481;BME280;30184;42.018;23.670;2023-12-04T05:57:55;91818.25;;;3.98;94.68
44481;BME280;30184;42.018;23.670;2023-12-04T06:00:24;91810.91;;;3.74;93.76
44481;BME280;30184;42.018;23.670;2023-12-04T06:02:54;91822.84;;;3.98;93.69
44481;BME280;30184;42.018;23.670;2023-12-04T06:05:23;91823.63;;;3.98;93.10
44481;BME280;30184;42.018;23.670;2023-12-04T06:07:53;91834.34;;;3.98;93.21
44481;BME280;30184;42.018;23.670;2023-12-04T06:10:23;91848.94;;;3.97;92.93
44481;BME280;30184;42.018;23.670;2023-12-04T06:12:52;91850.81;;;3.93;92.50
44481;BME280;30184;42.018;23.670;2023-12-04T06:15:21;91855.81;;;3.88;92.24
44481;BME280;30184;42.018;23.670;2023-12-04T06:17:50;91583.56;;;1.81;91.84
44481;BME280;30184;42.018;23.670;2023-12-04T06:20:19;91868.44;;;3.77;92.38
44481;BME280;30184;42.018;23.670;2023-12-04T06:22:49;91863.41;;;3.71;91.77
44481;BME280;30184;42.018;23.670;2023-12-04T06:25:20;91859.56;;;3.58;92.84
44481;BME280;30184;42.018;23.670;2023-12-04T06:27:51;91860.72;;;3.68;92.87
44481;BME280;30184;42.018;23.670;2023-12-04T06:30:20;91880.31;;;3.75;92.60
44481;BME280;30184;42.018;23.670;2023-12-04T06:32:50;91874.09;;;3.54;92.36
44481;BME280;30184;42.018;23.670;2023-12-04T06:35:20;91889.88;;;3.73;91.49
44481;BME280;30184;42.018;23.670;2023-12-04T06:37:51;91892.16;;;3.71;91.45
44481;BME280;30184;42.018;23.670;2023-12-04T06:40:24;91875.22;;;3.53;90.89
44481;BME280;30184;42.018;23.670;2023-12-04T06:42:54;91874.03;;;3.32;91.12
44481;BME280;30184;42.018;23.670;2023-12-04T06:45:23;91894.84;;;3.64;91.99
44481;BME280;30184;42.018;23.670;2023-12-04T06:47:53;91883.28;;;3.53;90.86
44481;BME280;30184;42.018;23.670;2023-12-04T06:50:23;91899.06;;;3.61;91.41
44481;BME280;30184;42.018;23.670;2023-12-04T06:52:52;91897.91;;;3.66;91.94
44481;BME280;30184;42.018;23.670;2023-12-04T06:55:22;91876.03;;;3.57;91.40
44481;BME280;30184;42.018;23.670;2023-12-04T06:57:51;91901.81;;;3.79;91.15
44481;BME280;30184;42.018;23.670;2023-12-04T07:00:21;91907.56;;;3.85;89.45
44481;BME280;30184;42.018;23.670;2023-12-04T07:02:50;91894.53;;;3.87;88.09
44481;BME280;30184;42.018;23.670;2023-12-04T07:05:19;91905.25;;;3.90;88.14
44481;BME280;30184;42.018;23.670;2023-12-04T07:07:49;91906.44;;;3.93;88.04
44481;BME280;30184;42.018;23.670;2023-12-04T07:10:17;91914.88;;;3.95;87.64
44481;BME280;30184;42.018;23.670;2023-12-04T07:12:48;91915.28;;;4.00;87.76
44481;BME280;30184;42.018;23.670;2023-12-04T07:15:17;91924.09;;;4.08;87.14
44481;BME280;30184;42.018;23.670;2023-12-04T07:17:46;91913.78;;;4.06;86.36
44481;BME280;30184;42.018;23.670;2023-12-04T07:20:16;91919.13;;;4.06;86.22
44481;BME280;30184;42.018;23.670;2023-12-04T07:22:44;91898.41;;;3.96;86.28
44481;BME280;30184;42.018;23.670;2023-12-04T07:25:14;91920.31;;;4.20;86.86
44481;BME280;30184;42.018;23.670;2023-12-04T07:27:44;91912.66;;;4.29;86.19
44481;BME280;30184;42.018;23.670;2023-12-04T07:30:15;91913.41;;;4.36;86.50
44481;BME280;30184;42.018;23.670;2023-12-04T07:32:45;91913.44;;;4.40;85.55
44481;BME280;30184;42.018;23.670;2023-12-04T07:35:16;91914.97;;;4.48;86.12
44481;BME280;30184;42.018;23.670;2023-12-04T07:37:45;91913.81;;;4.45;85.56
44481;BME280;30184;42.018;23.670;2023-12-04T07:40:15;91932.28;;;4.61;85.21
44481;BME280;30184;42.018;23.670;2023-12-04T07:42:44;91923.81;;;4.66;84.91
44481;BME280;30184;42.018;23.670;2023-12-04T07:45:14;91920.34;;;4.73;84.40
44481;BME280;30184;42.018;23.670;2023-12-04T07:47:44;91922.69;;;4.78;83.83
44481;BME280;30184;42.018;23.670;2023-12-04T07:50:13;91919.97;;;4.74;83.23
44481;BME280;30184;42.018;23.670;2023-12-04T07:52:42;91917.28;;;4.74;83.35
44481;BME280;30184;42.018;23.670;2023-12-04T07:55:11;91921.13;;;4.73;82.92
44481;BME280;30184;42.018;23.670;2023-12-04T07:57:40;91927.69;;;4.79;83.34
44481;BME280;30184;42.018;23.670;2023-12-04T08:00:11;91931.91;;;4.87;83.53
44481;BME280;30184;42.018;23.670;2023-12-04T08:02:41;91934.19;;;4.93;83.40
44481;BME280;30184;42.018;23.670;2023-12-04T08:05:12;91910.78;;;4.90;83.28
44481;BME280;30184;42.018;23.670;2023-12-04T08:07:41;91933.81;;;5.15;83.44
44481;BME280;30184;42.018;23.670;2023-12-04T08:10:11;91969.53;;;5.23;81.24
44481;BME280;30184;42.018;23.670;2023-12-04T08:12:40;91926.84;;;5.32;81.12
44481;BME280;30184;42.018;23.670;2023-12-04T08:15:09;91929.91;;;5.38;81.43
44481;BME280;30184;42.018;23.670;2023-12-04T08:17:38;91931.81;;;5.41;80.23
44481;BME280;30184;42.018;23.670;2023-12-04T08:20:10;91928.34;;;5.47;80.28
44481;BME280;30184;42.018;23.670;2023-12-04T08:22:42;91922.97;;;5.51;80.41
44481;BME280;30184;42.018;23.670;2023-12-04T08:25:12;91944.47;;;5.65;80.19
44481;BME280;30184;42.018;23.670;2023-12-04T08:27:41;91940.19;;;5.75;80.50
44481;BME280;30184;42.018;23.670;2023-12-04T08:30:10;91932.88;;;5.89;80.39
44481;BME280;30184;42.018;23.670;2023-12-04T08:32:40;91942.09;;;5.92;78.54
44481;BME280;30184;42.018;23.670;2023-12-04T08:35:10;91937.44;;;5.99;80.11
44481;BME280;30184;42.018;23.670;2023-12-04T08:37:39;91963.97;;;6.05;79.79
44481;BME280;30184;42.018;23.670;2023-12-04T08:40:09;91926.28;;;5.94;77.89
44481;BME280;30184;42.018;23.670;2023-12-04T08:42:39;91936.94;;;6.22;79.57
44481;BME280;30184;42.018;23.670;2023-12-04T08:45:09;91953.50;;;6.28;77.90
44481;BME280;30184;42.018;23.670;2023-12-04T08:47:39;91929.63;;;6.23;77.75
44481;BME280;30184;42.018;23.670;2023-12-04T08:50:09;91746.69;;;5.04;78.49
44481;BME280;30184;42.018;23.670;2023-12-04T08:52:38;91922.31;;;6.23;76.72
44481;BME280;30184;42.018;23.670;2023-12-04T08:55:10;91900.84;;;6.09;77.49
44481;BME280;30184;42.018;23.670;2023-12-04T08:57:39;91899.28;;;6.12;77.36
44481;BME280;30184;42.018;23.670;2023-12-04T09:00:09;91851.31;;;5.89;76.95
44481;BME280;30184;42.018;23.670;2023-12-04T09:02:39;91913.41;;;6.37;77.42
44481;BME280;30184;42.018;23.670;2023-12-04T09:05:12;91909.09;;;6.47;77.78
44481;BME280;30184;42.018;23.670;2023-12-04T09:07:41;91782.56;;;5.59;76.88
44481;BME280;30184;42.018;23.670;2023-12-04T09:10:26;91912.41;;;6.72;74.98
44481;BME280;30184;42.018;23.670;2023-12-04T09:12:56;91906.53;;;6.84;75.77
44481;BME280;30184;42.018;23.670;2023-12-04T09:15:25;91911.47;;;6.93;75.36
44481;BME280;30184;42.018;23.670;2023-12-04T09:17:55;91907.97;;;6.96;74.71
44481;BME280;30184;42.018;23.670;2023-12-04T09:20:25;91907.16;;;6.99;73.20
44481;BME280;30184;42.018;23.670;2023-12-04T09:22:55;91918.34;;;6.97;73.79
44481;BME280;30184;42.018;23.670;2023-12-04T09:25:26;91907.91;;;7.03;72.99
44481;BME280;30184;42.018;23.670;2023-12-04T09:27:56;91905.75;;;6.84;72.02
44481;BME280;30184;42.018;23.670;2023-12-04T09:30:25;91905.78;;;6.80;73.55
44481;BME280;30184;42.018;23.670;2023-12-04T09:32:55;91826.84;;;6.24;74.62
44481;BME280;30184;42.018;23.670;2023-12-04T09:35:25;91904.69;;;6.70;74.91
44481;BME280;30184;42.018;23.670;2023-12-04T09:37:55;91902.81;;;6.64;74.24
44481;BME280;30184;42.018;23.670;2023-12-04T09:40:24;91900.13;;;6.60;75.03
44481;BME280;30184;42.018;23.670;2023-12-04T09:42:53;91906.75;;;6.52;73.90
44481;BME280;30184;42.018;23.670;2023-12-04T09:45:24;91895.63;;;6.47;74.20
44481;BME280;30184;42.018;23.670;2023-12-04T09:47:54;91897.28;;;6.26;74.98
44481;BME280;30184;42.018;23.670;2023-12-04T09:50:25;91898.78;;;6.34;75.82
44481;BME280;30184;42.018;23.670;2023-12-04T09:52:55;91892.34;;;6.14;75.96
44481;BME280;30184;42.018;23.670;2023-12-04T09:55:27;91890.03;;;6.20;76.77
44481;BME280;30184;42.018;23.670;2023-12-04T09:57:57;91891.97;;;6.12;76.63
44481;BME280;30184;42.018;23.670;2023-12-04T10:00:27;91882.78;;;6.03;76.95
44481;BME280;30184;42.018;23.670;2023-12-04T10:02:56;91881.28;;;5.94;77.99
44481;BME280;30184;42.018;23.670;2023-12-04T10:05:29;91878.63;;;5.91;79.00
44481;BME280;30184;42.018;23.670;2023-12-04T10:07:58;91862.47;;;5.84;79.23
44481;BME280;30184;42.018;23.670;2023-12-04T10:10:27;91860.13;;;5.96;80.24
44481;BME280;30184;42.018;23.670;2023-12-04T10:12:56;91850.38;;;6.13;80.28
44481;BME280;30184;42.018;23.670;2023-12-04T10:15:26;91852.50;;;6.43;79.26
44481;BME280;30184;42.018;23.670;2023-12-04T10:17:55;91850.50;;;6.58;77.72
44481;BME280;30184;42.018;23.670;2023-12-04T10:20:25;91842.88;;;6.90;78.20
44481;BME280;30184;42.018;23.670;2023-12-04T10:22:58;91832.69;;;7.08;75.97
44481;BME280;30184;42.018;23.670;2023-12-04T10:25:29;91835.59;;;7.25;74.36
44481;BME280;30184;42.018;23.670;2023-12-04T10:28:07;91857.44;;;7.41;73.96
44481;BME280;30184;42.018;23.670;2023-12-04T10:30:37;91838.81;;;7.50;71.61
44481;BME280;30184;42.018;23.670;2023-12-04T10:33:07;91802.31;;;7.38;71.27
44481;BME280;30184;42.018;23.670;2023-12-04T10:35:37;91874.03;;;7.73;68.71
44481;BME280;30184;42.018;23.670;2023-12-04T10:38:08;91830.66;;;7.88;69.24
44481;BME280;30184;42.018;23.670;2023-12-04T10:40:37;91830.19;;;7.93;68.47
44481;BME280;30184;42.018;23.670;2023-12-04T10:43:12;91756.22;;;7.53;68.35
44481;BME280;30184;42.018;23.670;2023-12-04T10:45:42;91815.38;;;8.04;67.88
44481;BME280;30184;42.018;23.670;2023-12-04T10:48:16;91824.84;;;8.16;66.87
44481;BME280;30184;42.018;23.670;2023-12-04T10:50:46;91831.44;;;8.15;66.72
44481;BME280;30184;42.018;23.670;2023-12-04T10:53:17;91824.19;;;8.08;65.87
44481;BME280;30184;42.018;23.670;2023-12-04T10:55:49;91815.66;;;8.10;66.09
44481;BME280;30184;42.018;23.670;2023-12-04T10:58:19;91825.28;;;8.14;67.43
44481;BME280;30184;42.018;23.670;2023-12-04T11:00:50;91824.13;;;8.12;66.11
44481;BME280;30184;42.018;23.670;2023-12-04T11:03:36;91845.88;;;8.05;66.63
44481;BME280;30184;42.018;23.670;2023-12-04T11:06:08;91829.28;;;8.03;67.71
44481;BME280;30184;42.018;23.670;2023-12-04T11:08:42;91816.84;;;8.09;67.69
44481;BME280;30184;42.018;23.670;2023-12-04T11:11:13;91817.72;;;8.02;66.92
44481;BME280;30184;42.018;23.670;2023-12-04T11:13:49;91800.94;;;7.88;65.73
44481;BME280;30184;42.018;23.670;2023-12-04T11:16:25;91819.53;;;8.09;67.04
44481;BME280;30184;42.018;23.670;2023-12-04T11:18:57;91819.13;;;8.10;64.35
44481;BME280;30184;42.018;23.670;2023-12-04T11:21:31;91814.75;;;8.20;65.49
44481;BME280;30184;42.018;23.670;2023-12-04T11:24:03;91815.56;;;8.17;62.72
44481;BME280;30184;42.018;23.670;2023-12-04T11:26:34;91817.09;;;8.18;63.29
44481;BME280;30184;42.018;23.670;2023-12-04T11:29:04;91832.53;;;8.17;62.46
44481;BME280;30184;42.018;23.670;2023-12-04T11:31:34;91850.41;;;8.11;61.55
44481;BME280;30184;42.018;23.670;2023-12-04T11:34:04;91808.16;;;7.94;62.61
44481;BME280;30184;42.018;23.670;2023-12-04T11:36:34;91828.63;;;7.95;60.87
44481;BME280;30184;42.018;23.670;2023-12-04T11:39:08;91767.25;;;7.35;62.52
44481;BME280;30184;42.018;23.670;2023-12-04T11:41:40;91800.19;;;7.53;62.75
44481;BME280;30184;42.018;23.670;2023-12-04T11:44:12;91771.31;;;7.16;63.29
44481;BME280;30184;42.018;23.670;2023-12-04T11:46:59;91834.91;;;7.55;63.88
44481;BME280;30184;42.018;23.670;2023-12-04T11:49:33;91822.72;;;7.39;66.39
44481;BME280;30184;42.018;23.670;2023-12-04T11:52:04;91833.13;;;7.41;65.09
44481;BME280;30184;42.018;23.670;2023-12-04T11:54:59;91809.34;;;7.29;66.19
44481;BME280;30184;42.018;23.670;2023-12-04T11:57:35;91833.75;;;7.52;65.79
44481;BME280;30184;42.018;23.670;2023-12-04T12:03:03;91830.91;;;7.66;65.49
44481;BME280;30184;42.018;23.670;2023-12-04T12:05:34;91818.19;;;7.63;63.97
44481;BME280;30184;42.018;23.670;2023-12-04T12:08:04;91821.53;;;7.74;65.21
44481;BME280;30184;42.018;23.670;2023-12-04T12:10:35;91818.72;;;7.85;65.09
44481;BME280;30184;42.018;23.670;2023-12-04T12:13:04;91813.56;;;7.94;65.68
44481;BME280;30184;42.018;23.670;2023-12-04T12:15:33;91815.31;;;8.08;65.72
44481;BME280;30184;42.018;23.670;2023-12-04T12:18:05;91816.31;;;8.17;64.27
44481;BME280;30184;42.018;23.670;2023-12-04T12:20:36;91814.66;;;8.27;64.29
44481;BME280;30184;42.018;23.670;2023-12-04T12:23:06;91821.50;;;8.35;64.23
44481;BME280;30184;42.018;23.670;2023-12-04T12:25:36;91806.28;;;8.18;63.04
44481;BME280;30184;42.018;23.670;2023-12-04T12:28:06;91822.19;;;8.12;63.65
44481;BME280;30184;42.018;23.670;2023-12-04T12:30:35;91822.09;;;7.93;64.50
44481;BME280;30184;42.018;23.670;2023-12-04T12:33:04;91816.88;;;7.78;64.28
44481;BME280;30184;42.018;23.670;2023-12-04T12:35:34;91820.09;;;7.66;65.01
44481;BME280;30184;42.018;23.670;2023-12-04T12:38:03;91818.59;;;7.62;65.37
44481;BME280;30184;42.018;23.670;2023-12-04T12:40:32;91819.44;;;7.59;65.75
44481;BME280;30184;42.018;23.670;2023-12-04T12:43:06;91822.06;;;7.62;64.95
44481;BME280;30184;42.018;23.670;2023-12-04T12:45:39;91812.00;;;7.66;65.74
44481;BME280;30184;42.018;23.670;2023-12-04T12:48:10;91844.81;;;7.65;65.48
44481;BME280;30184;42.018;23.670;2023-12-04T12:50:41;91820.81;;;7.70;64.67
44481;BME280;30184;42.018;23.670;2023-12-04T12:53:10;91813.88;;;7.69;65.28
44481;BME280;30184;42.018;23.670;2023-12-04T12:55:40;91811.13;;;7.73;65.97
44481;BME280;30184;42.018;23.670;2023-12-04T12:58:11;91805.31;;;7.78;66.11
44481;BME280;30184;42.018;23.670;2023-12-04T13:00:41;91814.16;;;7.78;66.71
44481;BME280;30184;42.018;23.670;2023-12-04T13:03:15;91806.75;;;7.86;67.57
44481;BME280;30184;42.018;23.670;2023-12-04T13:05:44;91811.69;;;7.91;68.39
44481;BME280;30184;42.018;23.670;2023-12-04T13:08:14;91831.81;;;7.86;69.95
44481;BME280;30184;42.018;23.670;2023-12-04T13:10:43;91816.56;;;8.00;68.94
44481;BME280;30184;42.018;23.670;2023-12-04T13:13:14;91801.09;;;8.04;67.52
44481;BME280;30184;42.018;23.670;2023-12-04T13:15:43;91641.75;;;6.18;66.06